Antigua — C46824W — position and weather

sailwx.info

Track history (hours):
 
Tides and Currents Weather Stations Pressure Air Temp Water Temp Dewpoint Dewpoint Depression Visibility Wind Speed Wind Dir Waves Ship Positions

Antigua

Last reported at 2018-May-20 10:25 UTC. Time now 2018-May-27 11:40 UTC.
Position N 47°44' W 003°34'.

Length 12 m.

Type: Sailing vessel. MMSI: 227153620.

Date/timePositionNaut miles runAvg speedWind from/ knotsBaromVisibWave heightAir tempDewpointWater temp
2018-May-20 10:25N 47°44' W 003°34'2 4.9
2018-May-20 09:58N 47°43' W 003°31'3 6.5
2018-May-20 09:30N 47°42' W 003°27'3 6.3
2018-May-20 09:00N 47°42' W 003°23'1 2.4
2018-May-20 08:29N 47°43' W 003°21'0 0.0
2018-May-20 07:59N 47°43' W 003°21'0 0.0
2018-May-20 07:29N 47°43' W 003°21'0 0.0
2018-May-20 06:59N 47°43' W 003°21'0 0.0
2018-May-20 06:29N 47°43' W 003°21'0 0.0
2018-May-20 05:59N 47°43' W 003°21'0 0.0
2018-May-20 05:29N 47°43' W 003°21'0 0.0
2018-May-20 04:59N 47°43' W 003°21'0 0.0
2018-May-20 04:29N 47°43' W 003°21'0 0.0
2018-May-20 03:59N 47°43' W 003°21'0 0.0
2018-May-20 03:29N 47°43' W 003°21'0 0.0
2018-May-20 02:59N 47°43' W 003°21'0 0.0
2018-May-20 02:29N 47°43' W 003°21'0 0.0
2018-May-20 01:59N 47°43' W 003°21'0 0.0
2018-May-20 01:29N 47°43' W 003°21'0 0.0
2018-May-20 00:59N 47°43' W 003°21'0 0.0
2018-May-20 00:29N 47°43' W 003°21'0 0.0
2018-May-19 23:59N 47°43' W 003°21'0 0.0
2018-May-19 23:29N 47°43' W 003°21'0 0.0
2018-May-19 22:59N 47°43' W 003°21'0 0.0
2018-May-19 22:29N 47°43' W 003°21'0 0.0
2018-May-19 21:59N 47°43' W 003°21'0 0.0
2018-May-19 21:29N 47°43' W 003°21'0 0.0
2018-May-19 20:59N 47°43' W 003°21'0 0.0
2018-May-19 20:29N 47°43' W 003°21'0 0.0
2018-May-19 19:59N 47°43' W 003°21'0 0.0
2018-May-19 19:29N 47°43' W 003°21'0 0.0
2018-May-19 18:59N 47°43' W 003°21'0 0.0
2018-May-19 18:29N 47°43' W 003°21'0 0.0
2018-May-19 17:59N 47°43' W 003°21'1 2.8
2018-May-19 17:30N 47°44' W 003°22'0 0.0
2018-May-19 17:00N 47°44' W 003°22'0 0.0
2018-May-19 16:30N 47°44' W 003°22'2 3.3
2018-May-19 16:00N 47°42' W 003°23'3 5.9
2018-May-19 15:30N 47°41' W 003°27'2 3.7
2018-May-19 15:00N 47°42' W 003°29'2 3.9
2018-May-19 14:30N 47°43' W 003°32'  
Track history (hours):
 
Tides and Currents Weather Stations Pressure Air Temp Water Temp Dewpoint Dewpoint Depression Visibility Wind Speed Wind Dir Waves Ship Positions

Antigua

Last reported at 2018-May-20 10:25 UTC. Time now 2018-May-27 11:40 UTC.
Position N 47°44' W 003°34'.

Length 12 m.

Type: Sailing vessel. MMSI: 227153620.

Date/timePositionNaut miles runAvg speedWind from/ knotsBaromVisibWave heightAir tempDewpointWater temp
2018-May-20 10:25N 47°44' W 003°34'2 4.9
2018-May-20 09:58N 47°43' W 003°31'3 6.5
2018-May-20 09:30N 47°42' W 003°27'3 6.3
2018-May-20 09:00N 47°42' W 003°23'1 2.4
2018-May-20 08:29N 47°43' W 003°21'0 0.0
2018-May-20 07:59N 47°43' W 003°21'0 0.0
2018-May-20 07:29N 47°43' W 003°21'0 0.0
2018-May-20 06:59N 47°43' W 003°21'0 0.0
2018-May-20 06:29N 47°43' W 003°21'0 0.0
2018-May-20 05:59N 47°43' W 003°21'0 0.0
2018-May-20 05:29N 47°43' W 003°21'0 0.0
2018-May-20 04:59N 47°43' W 003°21'0 0.0
2018-May-20 04:29N 47°43' W 003°21'0 0.0
2018-May-20 03:59N 47°43' W 003°21'0 0.0
2018-May-20 03:29N 47°43' W 003°21'0 0.0
2018-May-20 02:59N 47°43' W 003°21'0 0.0
2018-May-20 02:29N 47°43' W 003°21'0 0.0
2018-May-20 01:59N 47°43' W 003°21'0 0.0
2018-May-20 01:29N 47°43' W 003°21'0 0.0
2018-May-20 00:59N 47°43' W 003°21'0 0.0
2018-May-20 00:29N 47°43' W 003°21'0 0.0
2018-May-19 23:59N 47°43' W 003°21'0 0.0
2018-May-19 23:29N 47°43' W 003°21'0 0.0
2018-May-19 22:59N 47°43' W 003°21'0 0.0
2018-May-19 22:29N 47°43' W 003°21'0 0.0
2018-May-19 21:59N 47°43' W 003°21'0 0.0
2018-May-19 21:29N 47°43' W 003°21'0 0.0
2018-May-19 20:59N 47°43' W 003°21'0 0.0
2018-May-19 20:29N 47°43' W 003°21'0 0.0
2018-May-19 19:59N 47°43' W 003°21'0 0.0
2018-May-19 19:29N 47°43' W 003°21'0 0.0
2018-May-19 18:59N 47°43' W 003°21'0 0.0
2018-May-19 18:29N 47°43' W 003°21'0 0.0
2018-May-19 17:59N 47°43' W 003°21'1 2.8
2018-May-19 17:30N 47°44' W 003°22'0 0.0
2018-May-19 17:00N 47°44' W 003°22'0 0.0
2018-May-19 16:30N 47°44' W 003°22'2 3.3
2018-May-19 16:00N 47°42' W 003°23'3 5.9
2018-May-19 15:30N 47°41' W 003°27'2 3.7
2018-May-19 15:00N 47°42' W 003°29'2 3.9
2018-May-19 14:30N 47°43' W 003°32'  

Dump ship's entire track history